Aérodrome :
LOGIN :

S'inscrire | Disclaimer

   EN    FR    IT 

 










Légende :    VFR   VFR Marginal   IFR   IFR Intensif   IFR Très Intensif
Visi : 
Plafond : 
>= 8 km
>= 3000ft
5 à 8 km
1000 à 3000 ft
1500m à 5 km
500 à 1000 ft
800 à 1500m
200 à 500 ft
< 800m
< 200 ft
Symboles :   Orages  Brouillard  Fortes neiges  Fortes précipitations  Vent > 20 kt
SIGMETs :   Divers  Orages  Givrage  Turbulence  Onde Orograph.  Cendres Volcan.






- Altitude de l'aérodrome : 157 ft
- Code IATA : SXF


EDDB - Berlin Schönefeld

DERNIER METAR :
  • 141850Z 08009KT CAVOK 04/02 Q1011 NOSIG

METARs EXPIRÉS :
  • 141820Z 09010KT CAVOK 04/02 Q1011 NOSIG
  • 141750Z 09011KT CAVOK 04/03 Q1011 NOSIG
  • 141720Z 09010KT CAVOK 05/03 Q1010 NOSIG
  • 141650Z 09010KT CAVOK 05/03 Q1010 NOSIG
  • 141620Z 09009KT CAVOK 05/02 Q1010 NOSIG

TAF TAF EDDB
Valide du 14 à 18h jusqu'au 15 à 18h UTC


141700Z 1418/1518 08009KT 9999 FEW010
BECMG 1419/1423 BKN006
TEMPO 1422/1509 BKN004
BECMG 1423/1503 08015G25KT
PROB30
TEMPO 1502/1506 3500 BR
BECMG 1508/1510 BKN011
BECMG 1511/1515 SCT012 BKN030



MET'MAP, la Météo Aéronautique d'un coup d'oeil ! - Copyright ORBIFLY Décembre 2007 - Disclaimer

ORBIFLY MET'MAP TEAM :

Programmation & Développement : Alexandra Zaïnal
Conception & Développement : Baudouin d'Aumeries
Co-Programmation & Développement : Marc-Olivier Méhu
Soutien technique & logistique : Manuel Goepfert

Contact : metmap@orbifly.com




SOURCES & CREDITS :

   NOAA